Schoten, Belgium
Current Conditions -  °F | °C
As of 11:20 AM on Saturday 20 Dec 2014 (Local Time) from EBAW Reporting Station
Broken Clouds Broken Clouds  
Wind Chill: 39°   Ceiling: 4000
Heat Index: 46°   Visibility: 6mi
Dew Point: 37°   Wind: 17mph
Humidity: 71%   Direction: 260°W
Pressure: 30.18"   Gusts: NA
Location:  51.25°N, 4.5°E
Report Text: EBAW 201020Z 26015KT 9999 SCT028 BKN040 08/03 Q1022 NOSIG
Loading
Personal Weather Stations






























Interactive Weather Map New forecast layout! Learn more

10-Day Weather Forecast

Advertisements
Track Severe Weather on mobile